Dallas, PA (18612)

7:16 PM EDT on July 25, 2016 (GMT -0400)
Captains Quarters Shavertown | | Change Station

Elev 1145 ft 41.33 °N, 75.94 °W | Updated 9 minutes ago

Mostly Cloudy
Mostly Cloudy
70.7 °F
Feels Like 70.7 °F
N
2.7
Wind Variable Wind from WSW

Today
High -- | Low -- °F
--% Chance of Precip.
Yesterday
High -- | Low -- °F
Precip. -- in
Pressure 29.89 in
Visibility 9.0 miles
Clouds Mostly Cloudy 400 ft
Mostly Cloudy 5500 ft
Mostly Cloudy 12000 ft
Dew Point 69 °F
Humidity 94%
Rainfall 0.61 in
Snow Depth Not available.
5:52 AM 8:27 PM
Waning Gibbous, 61% visible
SPECI KAVP 252313Z AUTO 00000KT 9SM BKN004 BKN055 BKN120 23/22 A2989 RMK AO2 LTG DSNT S RAE09 P0001 T02280222 $
Pressure 29.89 in
Visibility 9.0 miles
Clouds Mostly Cloudy 400 ft
Mostly Cloudy 5500 ft
Mostly Cloudy 12000 ft
Dew Point 69 °F
Humidity 94%
Rainfall 0.61 in
Snow Depth Not available.
5:52 AM 8:27 PM
Waning Gibbous, 61% visible
SPECI KAVP 252313Z AUTO 00000KT 9SM BKN004 BKN055 BKN120 23/22 A2989 RMK AO2 LTG DSNT S RAE09 P0001 T02280222 $
Record highs are possible for parts of the Northeast Monday and Tuesday, as parts of the central U.S. take a little breather from the worst of summer's dog day heat.

Expansive high pressure in the upper atmosphere will focus on parts of the East and West this week, sending heat indices well into the triple digits from the Mid-Atlantic states into the South.

10-Day Weather Forecast

Almanac

Astronomy

Jul. 25, 2016 Rise Set
Actual Time
Civil Twilight
Nautical Twilight
Astronomical Twilight
Moon
Length of Visible Light
Length of Day
Tomorrow will be .
, % of the Moon is Illuminated

Today's Extremes

State Highs State Lows

Community

WunderPhotos

Upload Photos

1,927,441 photos uploaded!

WunderBlog® & News

Nearby

Air Quality

  Air Quality AQ Index Pollutant
Not available.

Snow Depth

Station Depth Elevation

Earthquake Activity

City Distance Mag. Time & Date
Minimum magnitude displayed is 2.5.

Coastal Water Temperatures

Place Temperature

Stations

Nearby Weather Stations

Station Location Temp. Windchill Dew Point Humidity Wind Precip. Elev Updated Type
                   

Watches & Warnings

There are currently no watches in effect.